sensor_id;sensor_type;location;lat;lon;timestamp;P1;durP1;ratioP1;P2;durP2;ratioP2
14203;SDS011;7185;51.854;6.622;2023-08-21T00:00:23;7.05;;;1.92;;
14203;SDS011;7185;51.854;6.622;2023-08-21T00:02:55;6.70;;;1.75;;
14203;SDS011;7185;51.854;6.622;2023-08-21T00:05:26;6.50;;;1.70;;
14203;SDS011;7185;51.854;6.622;2023-08-21T00:07:58;5.25;;;1.58;;
14203;SDS011;7185;51.854;6.622;2023-08-21T00:10:29;8.52;;;1.70;;
14203;SDS011;7185;51.854;6.622;2023-08-21T00:13:03;5.70;;;1.73;;
14203;SDS011;7185;51.854;6.622;2023-08-21T00:15:37;5.20;;;1.63;;
14203;SDS011;7185;51.854;6.622;2023-08-21T00:18:08;8.98;;;2.15;;
14203;SDS011;7185;51.854;6.622;2023-08-21T00:20:40;8.20;;;2.03;;
14203;SDS011;7185;51.854;6.622;2023-08-21T00:23:13;5.25;;;1.80;;
14203;SDS011;7185;51.854;6.622;2023-08-21T00:25:45;7.50;;;1.90;;
14203;SDS011;7185;51.854;6.622;2023-08-21T00:28:19;6.60;;;1.90;;
14203;SDS011;7185;51.854;6.622;2023-08-21T00:30:50;8.43;;;2.00;;
14203;SDS011;7185;51.854;6.622;2023-08-21T00:33:22;7.03;;;2.20;;
14203;SDS011;7185;51.854;6.622;2023-08-21T00:35:53;6.25;;;2.00;;
14203;SDS011;7185;51.854;6.622;2023-08-21T00:38:25;6.97;;;1.90;;
14203;SDS011;7185;51.854;6.622;2023-08-21T00:40:56;7.97;;;2.15;;
14203;SDS011;7185;51.854;6.622;2023-08-21T00:43:32;5.05;;;1.80;;
14203;SDS011;7185;51.854;6.622;2023-08-21T00:46:04;8.13;;;1.85;;
14203;SDS011;7185;51.854;6.622;2023-08-21T00:48:36;9.02;;;2.38;;
14203;SDS011;7185;51.854;6.622;2023-08-21T00:51:07;8.57;;;2.30;;
14203;SDS011;7185;51.854;6.622;2023-08-21T00:53:39;8.90;;;2.00;;
14203;SDS011;7185;51.854;6.622;2023-08-21T00:56:10;9.90;;;2.03;;
14203;SDS011;7185;51.854;6.622;2023-08-21T00:58:43;6.35;;;1.70;;
14203;SDS011;7185;51.854;6.622;2023-08-21T01:01:15;7.07;;;2.00;;
14203;SDS011;7185;51.854;6.622;2023-08-21T01:03:49;5.88;;;2.25;;
14203;SDS011;7185;51.854;6.622;2023-08-21T01:06:20;5.25;;;1.90;;
14203;SDS011;7185;51.854;6.622;2023-08-21T01:08:53;9.50;;;2.00;;
14203;SDS011;7185;51.854;6.622;2023-08-21T01:11:27;6.95;;;2.40;;
14203;SDS011;7185;51.854;6.622;2023-08-21T01:14:06;6.95;;;2.20;;
14203;SDS011;7185;51.854;6.622;2023-08-21T01:16:39;6.22;;;2.00;;
14203;SDS011;7185;51.854;6.622;2023-08-21T01:19:21;8.75;;;2.10;;
14203;SDS011;7185;51.854;6.622;2023-08-21T01:21:56;5.70;;;2.00;;
14203;SDS011;7185;51.854;6.622;2023-08-21T01:24:28;5.78;;;1.80;;
14203;SDS011;7185;51.854;6.622;2023-08-21T01:27:00;5.18;;;2.33;;
14203;SDS011;7185;51.854;6.622;2023-08-21T01:29:32;5.90;;;2.28;;
14203;SDS011;7185;51.854;6.622;2023-08-21T01:32:06;9.32;;;2.15;;
14203;SDS011;7185;51.854;6.622;2023-08-21T01:34:38;3.83;;;2.08;;
14203;SDS011;7185;51.854;6.622;2023-08-21T01:37:10;7.95;;;2.42;;
14203;SDS011;7185;51.854;6.622;2023-08-21T01:39:44;8.27;;;2.50;;
14203;SDS011;7185;51.854;6.622;2023-08-21T01:42:15;4.93;;;1.90;;
14203;SDS011;7185;51.854;6.622;2023-08-21T01:44:47;10.20;;;2.40;;
14203;SDS011;7185;51.854;6.622;2023-08-21T01:47:18;7.80;;;2.38;;
14203;SDS011;7185;51.854;6.622;2023-08-21T01:49:50;7.25;;;2.55;;
14203;SDS011;7185;51.854;6.622;2023-08-21T01:52:22;8.45;;;2.42;;
14203;SDS011;7185;51.854;6.622;2023-08-21T01:54:55;7.38;;;2.40;;
14203;SDS011;7185;51.854;6.622;2023-08-21T01:57:26;6.80;;;2.20;;
14203;SDS011;7185;51.854;6.622;2023-08-21T01:59:58;9.50;;;2.10;;
14203;SDS011;7185;51.854;6.622;2023-08-21T02:02:29;8.80;;;2.53;;
14203;SDS011;7185;51.854;6.622;2023-08-21T02:05:01;7.40;;;2.45;;
14203;SDS011;7185;51.854;6.622;2023-08-21T02:07:33;8.38;;;2.40;;
14203;SDS011;7185;51.854;6.622;2023-08-21T02:10:07;7.68;;;2.47;;
14203;SDS011;7185;51.854;6.622;2023-08-21T02:12:39;8.88;;;2.80;;
14203;SDS011;7185;51.854;6.622;2023-08-21T02:15:10;5.38;;;2.28;;
14203;SDS011;7185;51.854;6.622;2023-08-21T02:17:42;8.68;;;2.55;;
14203;SDS011;7185;51.854;6.622;2023-08-21T02:20:13;5.45;;;2.33;;
14203;SDS011;7185;51.854;6.622;2023-08-21T02:22:45;6.53;;;2.40;;
14203;SDS011;7185;51.854;6.622;2023-08-21T02:25:18;8.57;;;2.60;;
14203;SDS011;7185;51.854;6.622;2023-08-21T02:27:50;5.18;;;2.13;;
14203;SDS011;7185;51.854;6.622;2023-08-21T02:30:21;7.50;;;2.67;;
14203;SDS011;7185;51.854;6.622;2023-08-21T02:32:55;10.73;;;2.53;;
14203;SDS011;7185;51.854;6.622;2023-08-21T02:35:26;8.20;;;2.67;;
14203;SDS011;7185;51.854;6.622;2023-08-21T02:37:58;7.03;;;2.42;;
14203;SDS011;7185;51.854;6.622;2023-08-21T02:40:31;5.10;;;2.30;;
14203;SDS011;7185;51.854;6.622;2023-08-21T02:43:03;6.30;;;2.72;;
14203;SDS011;7185;51.854;6.622;2023-08-21T02:45:34;9.05;;;2.70;;
14203;SDS011;7185;51.854;6.622;2023-08-21T02:48:06;8.82;;;2.95;;
14203;SDS011;7185;51.854;6.622;2023-08-21T02:50:37;8.43;;;2.58;;
14203;SDS011;7185;51.854;6.622;2023-08-21T02:53:09;8.00;;;2.40;;
14203;SDS011;7185;51.854;6.622;2023-08-21T02:55:42;4.68;;;2.22;;
14203;SDS011;7185;51.854;6.622;2023-08-21T02:58:13;10.13;;;2.63;;
14203;SDS011;7185;51.854;6.622;2023-08-21T03:00:45;7.00;;;2.33;;
14203;SDS011;7185;51.854;6.622;2023-08-21T03:03:16;7.88;;;2.88;;
14203;SDS011;7185;51.854;6.622;2023-08-21T03:05:48;6.63;;;2.83;;
14203;SDS011;7185;51.854;6.622;2023-08-21T03:08:19;6.60;;;2.50;;
14203;SDS011;7185;51.854;6.622;2023-08-21T03:10:52;4.72;;;2.60;;
14203;SDS011;7185;51.854;6.622;2023-08-21T03:13:24;10.25;;;2.70;;
14203;SDS011;7185;51.854;6.622;2023-08-21T03:15:55;8.13;;;2.60;;
14203;SDS011;7185;51.854;6.622;2023-08-21T03:18:29;7.13;;;2.75;;
14203;SDS011;7185;51.854;6.622;2023-08-21T03:21:01;6.43;;;2.60;;
14203;SDS011;7185;51.854;6.622;2023-08-21T03:23:33;9.38;;;3.00;;
14203;SDS011;7185;51.854;6.622;2023-08-21T03:26:06;6.95;;;2.70;;
14203;SDS011;7185;51.854;6.622;2023-08-21T03:28:37;6.40;;;2.72;;
14203;SDS011;7185;51.854;6.622;2023-08-21T03:31:09;6.45;;;2.65;;
14203;SDS011;7185;51.854;6.622;2023-08-21T03:33:40;8.70;;;3.28;;
14203;SDS011;7185;51.854;6.622;2023-08-21T03:36:12;7.38;;;2.70;;
14203;SDS011;7185;51.854;6.622;2023-08-21T03:38:43;10.23;;;2.85;;
14203;SDS011;7185;51.854;6.622;2023-08-21T03:41:16;8.55;;;2.55;;
14203;SDS011;7185;51.854;6.622;2023-08-21T03:43:48;9.57;;;2.58;;
14203;SDS011;7185;51.854;6.622;2023-08-21T03:46:19;9.45;;;2.70;;
14203;SDS011;7185;51.854;6.622;2023-08-21T03:48:51;7.70;;;2.75;;
14203;SDS011;7185;51.854;6.622;2023-08-21T03:51:22;7.35;;;2.67;;
14203;SDS011;7185;51.854;6.622;2023-08-21T03:53:54;8.35;;;3.08;;
14203;SDS011;7185;51.854;6.622;2023-08-21T03:56:27;5.13;;;2.63;;
14203;SDS011;7185;51.854;6.622;2023-08-21T03:58:58;11.45;;;3.00;;
14203;SDS011;7185;51.854;6.622;2023-08-21T04:01:30;7.22;;;2.70;;
14203;SDS011;7185;51.854;6.622;2023-08-21T04:04:01;8.98;;;2.75;;
14203;SDS011;7185;51.854;6.622;2023-08-21T04:06:33;7.53;;;2.55;;
14203;SDS011;7185;51.854;6.622;2023-08-21T04:09:04;6.85;;;2.70;;
14203;SDS011;7185;51.854;6.622;2023-08-21T04:11:38;11.18;;;2.80;;
14203;SDS011;7185;51.854;6.622;2023-08-21T04:14:10;5.80;;;2.42;;
14203;SDS011;7185;51.854;6.622;2023-08-21T04:16:43;9.43;;;2.40;;
14203;SDS011;7185;51.854;6.622;2023-08-21T04:19:19;7.03;;;2.50;;
14203;SDS011;7185;51.854;6.622;2023-08-21T04:22:07;7.18;;;2.60;;
14203;SDS011;7185;51.854;6.622;2023-08-21T04:24:49;8.00;;;2.90;;
14203;SDS011;7185;51.854;6.622;2023-08-21T04:27:36;8.82;;;3.03;;
14203;SDS011;7185;51.854;6.622;2023-08-21T04:30:30;6.63;;;2.72;;
14203;SDS011;7185;51.854;6.622;2023-08-21T04:33:33;7.75;;;3.08;;
14203;SDS011;7185;51.854;6.622;2023-08-21T04:36:17;6.25;;;2.65;;
14203;SDS011;7185;51.854;6.622;2023-08-21T04:39:03;8.43;;;2.45;;
14203;SDS011;7185;51.854;6.622;2023-08-21T04:41:50;5.90;;;2.83;;
14203;SDS011;7185;51.854;6.622;2023-08-21T04:44:38;7.60;;;2.67;;
14203;SDS011;7185;51.854;6.622;2023-08-21T04:47:27;10.52;;;3.10;;
14203;SDS011;7185;51.854;6.622;2023-08-21T04:50:03;6.60;;;2.75;;
14203;SDS011;7185;51.854;6.622;2023-08-21T04:52:40;10.13;;;2.83;;
14203;SDS011;7185;51.854;6.622;2023-08-21T04:55:26;9.63;;;3.20;;
14203;SDS011;7185;51.854;6.622;2023-08-21T04:58:19;9.07;;;3.08;;
14203;SDS011;7185;51.854;6.622;2023-08-21T05:01:12;9.73;;;3.45;;
14203;SDS011;7185;51.854;6.622;2023-08-21T05:06:28;8.32;;;3.08;;
14203;SDS011;7185;51.854;6.622;2023-08-21T05:08:59;8.20;;;2.85;;
14203;SDS011;7185;51.854;6.622;2023-08-21T05:11:31;9.40;;;3.40;;
14203;SDS011;7185;51.854;6.622;2023-08-21T05:14:02;9.90;;;3.47;;
14203;SDS011;7185;51.854;6.622;2023-08-21T05:16:35;8.55;;;2.70;;
14203;SDS011;7185;51.854;6.622;2023-08-21T05:19:07;10.02;;;2.90;;
14203;SDS011;7185;51.854;6.622;2023-08-21T05:21:38;14.43;;;3.35;;
14203;SDS011;7185;51.854;6.622;2023-08-21T05:24:10;8.13;;;2.67;;
14203;SDS011;7185;51.854;6.622;2023-08-21T05:26:41;8.75;;;3.10;;
14203;SDS011;7185;51.854;6.622;2023-08-21T05:29:13;13.07;;;3.20;;
14203;SDS011;7185;51.854;6.622;2023-08-21T05:31:46;9.13;;;3.40;;
14203;SDS011;7185;51.854;6.622;2023-08-21T05:34:18;8.65;;;3.08;;
14203;SDS011;7185;51.854;6.622;2023-08-21T05:36:49;6.78;;;2.58;;
14203;SDS011;7185;51.854;6.622;2023-08-21T05:39:21;9.93;;;2.60;;
14203;SDS011;7185;51.854;6.622;2023-08-21T05:41:52;7.60;;;2.85;;
14203;SDS011;7185;51.854;6.622;2023-08-21T05:44:23;4.70;;;2.30;;
14203;SDS011;7185;51.854;6.622;2023-08-21T05:46:57;6.30;;;2.67;;
14203;SDS011;7185;51.854;6.622;2023-08-21T05:49:28;7.50;;;2.47;;
14203;SDS011;7185;51.854;6.622;2023-08-21T05:52:00;4.82;;;2.25;;
14203;SDS011;7185;51.854;6.622;2023-08-21T05:54:32;9.82;;;2.83;;
14203;SDS011;7185;51.854;6.622;2023-08-21T05:57:03;6.32;;;2.22;;
14203;SDS011;7185;51.854;6.622;2023-08-21T05:59:35;11.43;;;2.95;;
14203;SDS011;7185;51.854;6.622;2023-08-21T06:02:07;4.70;;;2.17;;
14203;SDS011;7185;51.854;6.622;2023-08-21T06:04:39;7.53;;;2.63;;
14203;SDS011;7185;51.854;6.622;2023-08-21T06:07:11;9.00;;;3.45;;
14203;SDS011;7185;51.854;6.622;2023-08-21T06:09:42;7.30;;;3.20;;
14203;SDS011;7185;51.854;6.622;2023-08-21T06:12:15;8.60;;;2.65;;
14203;SDS011;7185;51.854;6.622;2023-08-21T06:14:46;9.30;;;3.05;;
14203;SDS011;7185;51.854;6.622;2023-08-21T06:17:19;8.60;;;2.95;;
14203;SDS011;7185;51.854;6.622;2023-08-21T06:19:51;10.82;;;3.30;;
14203;SDS011;7185;51.854;6.622;2023-08-21T06:22:22;7.38;;;2.75;;
14203;SDS011;7185;51.854;6.622;2023-08-21T06:24:54;6.25;;;2.83;;
14203;SDS011;7185;51.854;6.622;2023-08-21T06:27:25;9.73;;;3.08;;
14203;SDS011;7185;51.854;6.622;2023-08-21T06:29:56;10.32;;;2.63;;
14203;SDS011;7185;51.854;6.622;2023-08-21T06:32:29;5.93;;;2.03;;
14203;SDS011;7185;51.854;6.622;2023-08-21T06:35:01;8.18;;;2.38;;
14203;SDS011;7185;51.854;6.622;2023-08-21T06:37:32;9.57;;;3.28;;
14203;SDS011;7185;51.854;6.622;2023-08-21T06:40:04;7.38;;;2.42;;
14203;SDS011;7185;51.854;6.622;2023-08-21T06:42:37;7.28;;;2.72;;
14203;SDS011;7185;51.854;6.622;2023-08-21T06:45:08;5.97;;;2.50;;
14203;SDS011;7185;51.854;6.622;2023-08-21T06:47:41;8.18;;;2.67;;
14203;SDS011;7185;51.854;6.622;2023-08-21T06:50:13;7.60;;;2.60;;
14203;SDS011;7185;51.854;6.622;2023-08-21T06:52:44;7.18;;;2.80;;
14203;SDS011;7185;51.854;6.622;2023-08-21T06:55:16;7.82;;;2.90;;
14203;SDS011;7185;51.854;6.622;2023-08-21T06:57:47;9.13;;;3.20;;
14203;SDS011;7185;51.854;6.622;2023-08-21T07:00:18;8.82;;;2.80;;
14203;SDS011;7185;51.854;6.622;2023-08-21T07:02:51;10.43;;;3.10;;
14203;SDS011;7185;51.854;6.622;2023-08-21T07:05:23;5.78;;;2.70;;
14203;SDS011;7185;51.854;6.622;2023-08-21T07:07:55;7.60;;;2.65;;
14203;SDS011;7185;51.854;6.622;2023-08-21T07:10:26;7.03;;;2.60;;
14203;SDS011;7185;51.854;6.622;2023-08-21T07:12:59;8.48;;;2.67;;
14203;SDS011;7185;51.854;6.622;2023-08-21T07:15:31;13.35;;;2.75;;
14203;SDS011;7185;51.854;6.622;2023-08-21T07:18:04;8.77;;;2.50;;
14203;SDS011;7185;51.854;6.622;2023-08-21T07:20:35;7.90;;;3.10;;
14203;SDS011;7185;51.854;6.622;2023-08-21T07:23:07;8.13;;;2.38;;
14203;SDS011;7185;51.854;6.622;2023-08-21T07:25:38;11.18;;;2.28;;
14203;SDS011;7185;51.854;6.622;2023-08-21T07:28:10;6.47;;;2.25;;
14203;SDS011;7185;51.854;6.622;2023-08-21T07:30:41;6.20;;;2.20;;
14203;SDS011;7185;51.854;6.622;2023-08-21T07:33:14;7.85;;;1.90;;
14203;SDS011;7185;51.854;6.622;2023-08-21T07:35:45;7.00;;;2.05;;
14203;SDS011;7185;51.854;6.622;2023-08-21T07:38:18;7.97;;;2.20;;
14203;SDS011;7185;51.854;6.622;2023-08-21T07:40:49;8.85;;;2.00;;
14203;SDS011;7185;51.854;6.622;2023-08-21T07:43:21;8.43;;;2.15;;
14203;SDS011;7185;51.854;6.622;2023-08-21T07:45:52;6.10;;;1.73;;
14203;SDS011;7185;51.854;6.622;2023-08-21T07:48:25;7.40;;;2.17;;
14203;SDS011;7185;51.854;6.622;2023-08-21T07:50:57;9.40;;;2.08;;
14203;SDS011;7185;51.854;6.622;2023-08-21T07:53:28;7.65;;;1.67;;
14203;SDS011;7185;51.854;6.622;2023-08-21T07:56:01;7.82;;;2.47;;
14203;SDS011;7185;51.854;6.622;2023-08-21T07:58:33;6.25;;;1.75;;
14203;SDS011;7185;51.854;6.622;2023-08-21T08:01:08;8.73;;;2.17;;
14203;SDS011;7185;51.854;6.622;2023-08-21T08:03:41;8.85;;;2.30;;
14203;SDS011;7185;51.854;6.622;2023-08-21T08:06:13;8.05;;;1.73;;
14203;SDS011;7185;51.854;6.622;2023-08-21T08:08:45;7.43;;;1.70;;
14203;SDS011;7185;51.854;6.622;2023-08-21T08:11:16;7.47;;;1.40;;
14203;SDS011;7185;51.854;6.622;2023-08-21T08:13:48;7.32;;;1.40;;
14203;SDS011;7185;51.854;6.622;2023-08-21T08:16:19;6.72;;;1.80;;
14203;SDS011;7185;51.854;6.622;2023-08-21T08:18:55;4.38;;;1.55;;
14203;SDS011;7185;51.854;6.622;2023-08-21T08:21:28;8.27;;;1.52;;
14203;SDS011;7185;51.854;6.622;2023-08-21T08:23:59;8.25;;;1.60;;
14203;SDS011;7185;51.854;6.622;2023-08-21T08:26:31;7.65;;;1.48;;
14203;SDS011;7185;51.854;6.622;2023-08-21T08:29:02;7.35;;;1.50;;
14203;SDS011;7185;51.854;6.622;2023-08-21T08:31:35;10.32;;;1.70;;
14203;SDS011;7185;51.854;6.622;2023-08-21T08:34:10;6.95;;;1.90;;
14203;SDS011;7185;51.854;6.622;2023-08-21T08:36:41;7.65;;;1.92;;
14203;SDS011;7185;51.854;6.622;2023-08-21T08:39:13;4.38;;;1.30;;
14203;SDS011;7185;51.854;6.622;2023-08-21T08:41:48;4.80;;;1.55;;
14203;SDS011;7185;51.854;6.622;2023-08-21T08:44:22;6.22;;;1.48;;
14203;SDS011;7185;51.854;6.622;2023-08-21T08:46:56;4.45;;;1.60;;
14203;SDS011;7185;51.854;6.622;2023-08-21T08:49:29;5.40;;;1.80;;
14203;SDS011;7185;51.854;6.622;2023-08-21T08:52:01;5.30;;;1.48;;
14203;SDS011;7185;51.854;6.622;2023-08-21T08:54:32;7.28;;;1.80;;
14203;SDS011;7185;51.854;6.622;2023-08-21T08:57:05;7.07;;;1.85;;
14203;SDS011;7185;51.854;6.622;2023-08-21T08:59:37;6.95;;;2.15;;
14203;SDS011;7185;51.854;6.622;2023-08-21T09:02:08;17.98;;;3.92;;
14203;SDS011;7185;51.854;6.622;2023-08-21T09:04:41;8.20;;;1.85;;
14203;SDS011;7185;51.854;6.622;2023-08-21T09:07:12;6.75;;;1.30;;
14203;SDS011;7185;51.854;6.622;2023-08-21T09:09:48;8.45;;;1.65;;
14203;SDS011;7185;51.854;6.622;2023-08-21T09:12:20;6.38;;;1.48;;
14203;SDS011;7185;51.854;6.622;2023-08-21T09:14:52;8.48;;;1.77;;
14203;SDS011;7185;51.854;6.622;2023-08-21T09:17:23;5.22;;;1.30;;
14203;SDS011;7185;51.854;6.622;2023-08-21T09:19:56;7.43;;;1.98;;
14203;SDS011;7185;51.854;6.622;2023-08-21T09:22:34;8.48;;;1.45;;
14203;SDS011;7185;51.854;6.622;2023-08-21T09:25:06;6.18;;;1.60;;
14203;SDS011;7185;51.854;6.622;2023-08-21T09:27:40;5.13;;;1.50;;
14203;SDS011;7185;51.854;6.622;2023-08-21T09:30:12;5.82;;;1.58;;
14203;SDS011;7185;51.854;6.622;2023-08-21T09:32:54;6.57;;;1.60;;
14203;SDS011;7185;51.854;6.622;2023-08-21T09:35:27;5.63;;;1.25;;
14203;SDS011;7185;51.854;6.622;2023-08-21T09:37:58;6.22;;;1.27;;
14203;SDS011;7185;51.854;6.622;2023-08-21T09:40:30;5.78;;;1.33;;
14203;SDS011;7185;51.854;6.622;2023-08-21T09:43:02;3.70;;;1.10;;
14203;SDS011;7185;51.854;6.622;2023-08-21T09:45:35;7.25;;;1.50;;
14203;SDS011;7185;51.854;6.622;2023-08-21T09:48:06;6.75;;;1.25;;
14203;SDS011;7185;51.854;6.622;2023-08-21T09:50:39;4.00;;;1.23;;
14203;SDS011;7185;51.854;6.622;2023-08-21T09:53:11;4.80;;;1.40;;
14203;SDS011;7185;51.854;6.622;2023-08-21T09:55:43;6.88;;;1.40;;
14203;SDS011;7185;51.854;6.622;2023-08-21T09:58:15;5.13;;;1.30;;
14203;SDS011;7185;51.854;6.622;2023-08-21T10:00:47;5.20;;;1.20;;
14203;SDS011;7185;51.854;6.622;2023-08-21T10:03:44;5.25;;;1.13;;
14203;SDS011;7185;51.854;6.622;2023-08-21T10:06:35;6.32;;;1.00;;
14203;SDS011;7185;51.854;6.622;2023-08-21T10:09:07;5.68;;;1.17;;
14203;SDS011;7185;51.854;6.622;2023-08-21T10:11:54;5.50;;;1.30;;
14203;SDS011;7185;51.854;6.622;2023-08-21T10:14:28;4.97;;;1.40;;
14203;SDS011;7185;51.854;6.622;2023-08-21T10:17:27;6.30;;;1.45;;
14203;SDS011;7185;51.854;6.622;2023-08-21T10:20:01;6.78;;;1.25;;
14203;SDS011;7185;51.854;6.622;2023-08-21T10:22:43;11.77;;;1.87;;
14203;SDS011;7185;51.854;6.622;2023-08-21T10:25:15;4.88;;;1.27;;
14203;SDS011;7185;51.854;6.622;2023-08-21T10:27:49;6.10;;;1.40;;
14203;SDS011;7185;51.854;6.622;2023-08-21T10:30:21;9.30;;;1.48;;
14203;SDS011;7185;51.854;6.622;2023-08-21T10:32:59;5.78;;;1.25;;
14203;SDS011;7185;51.854;6.622;2023-08-21T10:35:38;5.10;;;1.30;;
14203;SDS011;7185;51.854;6.622;2023-08-21T10:38:21;6.80;;;1.70;;
14203;SDS011;7185;51.854;6.622;2023-08-21T10:41:06;6.00;;;1.60;;
14203;SDS011;7185;51.854;6.622;2023-08-21T10:44:00;6.60;;;1.40;;
14203;SDS011;7185;51.854;6.622;2023-08-21T10:46:50;10.23;;;1.50;;
14203;SDS011;7185;51.854;6.622;2023-08-21T10:49:21;4.40;;;1.15;;
14203;SDS011;7185;51.854;6.622;2023-08-21T10:51:54;6.05;;;1.10;;
14203;SDS011;7185;51.854;6.622;2023-08-21T10:54:27;5.70;;;1.30;;
14203;SDS011;7185;51.854;6.622;2023-08-21T10:57:01;7.22;;;1.40;;
14203;SDS011;7185;51.854;6.622;2023-08-21T10:59:33;7.00;;;1.48;;
14203;SDS011;7185;51.854;6.622;2023-08-21T11:02:05;6.57;;;1.33;;
14203;SDS011;7185;51.854;6.622;2023-08-21T11:04:39;7.05;;;1.50;;
14203;SDS011;7185;51.854;6.622;2023-08-21T11:09:44;7.90;;;1.83;;
14203;SDS011;7185;51.854;6.622;2023-08-21T11:12:16;4.78;;;1.50;;
14203;SDS011;7185;51.854;6.622;2023-08-21T11:14:48;5.43;;;1.65;;
14203;SDS011;7185;51.854;6.622;2023-08-21T11:17:20;6.65;;;1.25;;
14203;SDS011;7185;51.854;6.622;2023-08-21T11:19:53;10.23;;;2.25;;
14203;SDS011;7185;51.854;6.622;2023-08-21T11:22:28;6.25;;;1.30;;
14203;SDS011;7185;51.854;6.622;2023-08-21T11:25:01;7.03;;;1.58;;
14203;SDS011;7185;51.854;6.622;2023-08-21T11:27:33;7.18;;;1.35;;
14203;SDS011;7185;51.854;6.622;2023-08-21T11:30:06;4.85;;;1.50;;
14203;SDS011;7185;51.854;6.622;2023-08-21T11:32:38;5.10;;;1.65;;
14203;SDS011;7185;51.854;6.622;2023-08-21T11:35:09;6.60;;;1.30;;
14203;SDS011;7185;51.854;6.622;2023-08-21T11:37:55;4.65;;;1.55;;
14203;SDS011;7185;51.854;6.622;2023-08-21T11:40:39;3.70;;;1.25;;
14203;SDS011;7185;51.854;6.622;2023-08-21T11:43:33;5.15;;;1.45;;
14203;SDS011;7185;51.854;6.622;2023-08-21T11:46:38;5.57;;;1.50;;
14203;SDS011;7185;51.854;6.622;2023-08-21T11:49:27;5.63;;;1.30;;
14203;SDS011;7185;51.854;6.622;2023-08-21T11:52:28;4.47;;;1.25;;
14203;SDS011;7185;51.854;6.622;2023-08-21T11:55:33;2.85;;;1.00;;
14203;SDS011;7185;51.854;6.622;2023-08-21T12:01:39;5.25;;;1.25;;
14203;SDS011;7185;51.854;6.622;2023-08-21T12:04:24;4.03;;;1.30;;
14203;SDS011;7185;51.854;6.622;2023-08-21T12:07:15;5.07;;;1.15;;
14203;SDS011;7185;51.854;6.622;2023-08-21T12:09:57;6.88;;;1.45;;
14203;SDS011;7185;51.854;6.622;2023-08-21T12:12:43;4.70;;;1.33;;
14203;SDS011;7185;51.854;6.622;2023-08-21T12:15:36;8.85;;;1.42;;
14203;SDS011;7185;51.854;6.622;2023-08-21T12:18:19;5.20;;;1.38;;
14203;SDS011;7185;51.854;6.622;2023-08-21T12:21:10;4.25;;;1.20;;
14203;SDS011;7185;51.854;6.622;2023-08-21T12:23:49;6.22;;;1.40;;
14203;SDS011;7185;51.854;6.622;2023-08-21T12:26:50;3.10;;;1.13;;
14203;SDS011;7185;51.854;6.622;2023-08-21T12:29:39;9.38;;;1.20;;
14203;SDS011;7185;51.854;6.622;2023-08-21T12:32:19;5.78;;;1.20;;
14203;SDS011;7185;51.854;6.622;2023-08-21T12:35:00;5.45;;;1.50;;
14203;SDS011;7185;51.854;6.622;2023-08-21T12:37:55;3.53;;;1.30;;
14203;SDS011;7185;51.854;6.622;2023-08-21T12:40:38;4.80;;;1.13;;
14203;SDS011;7185;51.854;6.622;2023-08-21T12:43:17;6.10;;;1.70;;
14203;SDS011;7185;51.854;6.622;2023-08-21T12:45:49;5.05;;;1.08;;
14203;SDS011;7185;51.854;6.622;2023-08-21T12:48:20;6.93;;;1.10;;
14203;SDS011;7185;51.854;6.622;2023-08-21T12:50:53;5.18;;;1.10;;
14203;SDS011;7185;51.854;6.622;2023-08-21T12:53:25;7.25;;;1.52;;
14203;SDS011;7185;51.854;6.622;2023-08-21T12:55:56;2.58;;;1.00;;
14203;SDS011;7185;51.854;6.622;2023-08-21T12:58:28;5.95;;;1.30;;
14203;SDS011;7185;51.854;6.622;2023-08-21T13:01:00;5.47;;;1.48;;
14203;SDS011;7185;51.854;6.622;2023-08-21T13:03:33;4.15;;;1.20;;
14203;SDS011;7185;51.854;6.622;2023-08-21T13:06:06;4.07;;;1.20;;
14203;SDS011;7185;51.854;6.622;2023-08-21T13:08:37;5.10;;;1.20;;
14203;SDS011;7185;51.854;6.622;2023-08-21T13:11:09;5.30;;;1.33;;
14203;SDS011;7185;51.854;6.622;2023-08-21T13:13:41;10.93;;;1.40;;
14203;SDS011;7185;51.854;6.622;2023-08-21T13:16:12;4.65;;;1.20;;
14203;SDS011;7185;51.854;6.622;2023-08-21T13:18:44;5.15;;;1.20;;
14203;SDS011;7185;51.854;6.622;2023-08-21T13:21:17;6.65;;;1.75;;
14203;SDS011;7185;51.854;6.622;2023-08-21T13:23:49;4.00;;;1.20;;
14203;SDS011;7185;51.854;6.622;2023-08-21T13:26:21;5.95;;;1.40;;
14203;SDS011;7185;51.854;6.622;2023-08-21T13:28:53;5.32;;;1.40;;
14203;SDS011;7185;51.854;6.622;2023-08-21T13:31:24;6.40;;;1.55;;
14203;SDS011;7185;51.854;6.622;2023-08-21T13:33:56;5.82;;;1.52;;
14203;SDS011;7185;51.854;6.622;2023-08-21T13:36:29;3.42;;;1.15;;
14203;SDS011;7185;51.854;6.622;2023-08-21T13:39:00;4.45;;;1.40;;
14203;SDS011;7185;51.854;6.622;2023-08-21T13:41:36;6.70;;;1.58;;
14203;SDS011;7185;51.854;6.622;2023-08-21T13:44:07;6.05;;;1.58;;
14203;SDS011;7185;51.854;6.622;2023-08-21T13:46:39;5.15;;;1.38;;
14203;SDS011;7185;51.854;6.622;2023-08-21T13:49:10;7.10;;;1.40;;
14203;SDS011;7185;51.854;6.622;2023-08-21T13:51:43;4.90;;;1.52;;
14203;SDS011;7185;51.854;6.622;2023-08-21T13:56:49;6.97;;;2.30;;
14203;SDS011;7185;51.854;6.622;2023-08-21T13:59:20;5.50;;;1.83;;
14203;SDS011;7185;51.854;6.622;2023-08-21T14:01:52;5.55;;;1.70;;
14203;SDS011;7185;51.854;6.622;2023-08-21T14:04:23;7.00;;;1.50;;
14203;SDS011;7185;51.854;6.622;2023-08-21T14:06:56;5.20;;;1.73;;
14203;SDS011;7185;51.854;6.622;2023-08-21T14:09:28;4.90;;;1.67;;
14203;SDS011;7185;51.854;6.622;2023-08-21T14:11:59;5.97;;;1.70;;
14203;SDS011;7185;51.854;6.622;2023-08-21T14:14:30;10.00;;;1.75;;
14203;SDS011;7185;51.854;6.622;2023-08-21T14:17:02;6.22;;;1.75;;
14203;SDS011;7185;51.854;6.622;2023-08-21T14:19:34;6.25;;;1.77;;
14203;SDS011;7185;51.854;6.622;2023-08-21T14:22:07;6.00;;;1.98;;
14203;SDS011;7185;51.854;6.622;2023-08-21T14:24:38;5.25;;;1.60;;
14203;SDS011;7185;51.854;6.622;2023-08-21T14:27:10;5.38;;;1.80;;
14203;SDS011;7185;51.854;6.622;2023-08-21T14:29:41;8.02;;;1.95;;
14203;SDS011;7185;51.854;6.622;2023-08-21T14:32:13;6.90;;;2.03;;
14203;SDS011;7185;51.854;6.622;2023-08-21T14:34:45;8.38;;;2.00;;
14203;SDS011;7185;51.854;6.622;2023-08-21T14:37:18;6.85;;;2.38;;
14203;SDS011;7185;51.854;6.622;2023-08-21T14:39:51;5.57;;;2.10;;
14203;SDS011;7185;51.854;6.622;2023-08-21T14:42:22;6.57;;;2.50;;
14203;SDS011;7185;51.854;6.622;2023-08-21T14:44:54;5.38;;;2.00;;
14203;SDS011;7185;51.854;6.622;2023-08-21T14:47:25;6.97;;;2.40;;
14203;SDS011;7185;51.854;6.622;2023-08-21T14:49:57;6.18;;;2.53;;
14203;SDS011;7185;51.854;6.622;2023-08-21T14:52:30;6.47;;;2.30;;
14203;SDS011;7185;51.854;6.622;2023-08-21T14:55:01;4.93;;;2.17;;
14203;SDS011;7185;51.854;6.622;2023-08-21T14:57:33;5.75;;;1.85;;
14203;SDS011;7185;51.854;6.622;2023-08-21T15:00:05;4.72;;;2.10;;
14203;SDS011;7185;51.854;6.622;2023-08-21T15:03:26;6.78;;;2.10;;
14203;SDS011;7185;51.854;6.622;2023-08-21T15:06:14;5.53;;;1.80;;
14203;SDS011;7185;51.854;6.622;2023-08-21T15:11:50;7.22;;;2.10;;
14203;SDS011;7185;51.854;6.622;2023-08-21T15:14:36;4.88;;;1.92;;
14203;SDS011;7185;51.854;6.622;2023-08-21T15:17:29;6.20;;;2.35;;
14203;SDS011;7185;51.854;6.622;2023-08-21T15:20:05;6.55;;;1.85;;
14203;SDS011;7185;51.854;6.622;2023-08-21T15:22:50;5.57;;;2.20;;
14203;SDS011;7185;51.854;6.622;2023-08-21T15:25:24;7.13;;;2.17;;
14203;SDS011;7185;51.854;6.622;2023-08-21T15:30:58;7.18;;;1.95;;
14203;SDS011;7185;51.854;6.622;2023-08-21T15:33:30;4.97;;;2.03;;
14203;SDS011;7185;51.854;6.622;2023-08-21T15:36:02;5.68;;;1.83;;
14203;SDS011;7185;51.854;6.622;2023-08-21T15:38:34;9.65;;;2.70;;
14203;SDS011;7185;51.854;6.622;2023-08-21T15:41:05;5.63;;;2.15;;
14203;SDS011;7185;51.854;6.622;2023-08-21T15:43:38;6.30;;;2.35;;
14203;SDS011;7185;51.854;6.622;2023-08-21T15:46:10;4.60;;;1.67;;
14203;SDS011;7185;51.854;6.622;2023-08-21T15:48:42;5.05;;;1.98;;
14203;SDS011;7185;51.854;6.622;2023-08-21T15:51:13;5.28;;;1.73;;
14203;SDS011;7185;51.854;6.622;2023-08-21T15:53:45;5.80;;;1.90;;
14203;SDS011;7185;51.854;6.622;2023-08-21T15:56:16;5.05;;;1.90;;
14203;SDS011;7185;51.854;6.622;2023-08-21T15:58:48;7.53;;;2.03;;
14203;SDS011;7185;51.854;6.622;2023-08-21T16:01:22;4.63;;;2.00;;